createdAt,value
2018-02-20T00:01:24.180Z,101530.88
2018-02-20T00:03:50.134Z,101528.73
2018-02-20T00:06:15.981Z,101536.78
2018-02-20T00:08:41.865Z,101529.52
2018-02-20T00:11:07.708Z,101531.97
2018-02-20T00:13:33.546Z,101536.25
2018-02-20T00:15:59.541Z,101536.82
2018-02-20T00:18:25.394Z,101536.16
2018-02-20T00:20:51.236Z,101536.98
2018-02-20T00:23:17.128Z,101536.95
2018-02-20T00:25:42.982Z,101532.39
2018-02-20T00:28:09.020Z,101531.84
2018-02-20T00:30:35.310Z,101530.34
2018-02-20T00:33:01.158Z,101530.75
2018-02-20T00:35:26.992Z,101530.24
2018-02-20T00:37:52.913Z,101529.30
2018-02-20T00:40:18.848Z,101526.72
2018-02-20T00:42:44.694Z,101528.36
2018-02-20T00:45:10.571Z,101528.55
2018-02-20T00:47:36.421Z,101529.11
2018-02-20T00:50:02.278Z,101534.42
2018-02-20T00:52:28.270Z,101536.69
2018-02-20T00:54:54.122Z,101532.67
2018-02-20T00:57:20.029Z,101532.67
2018-02-20T00:59:45.904Z,101539.98
2018-02-20T01:02:11.776Z,101527.61
2018-02-20T01:04:37.716Z,101529.75
2018-02-20T01:07:03.611Z,101537.92
2018-02-20T01:09:29.524Z,101527.20
2018-02-20T01:11:55.365Z,101533.44
2018-02-20T01:14:21.270Z,101529.66
2018-02-20T01:16:47.209Z,101527.92
2018-02-20T01:19:13.058Z,101524.02
2018-02-20T01:21:38.968Z,101523.71
2018-02-20T01:24:04.869Z,101521.09
2018-02-20T01:26:30.718Z,101520.91
2018-02-20T01:28:56.734Z,101521.63
2018-02-20T01:31:22.585Z,101523.93
2018-02-20T01:33:48.434Z,101522.73
2018-02-20T01:36:14.357Z,101526.13
2018-02-20T01:38:40.203Z,101526.52
2018-02-20T01:41:06.145Z,101534.19
2018-02-20T01:43:32.270Z,101539.80
2018-02-20T01:45:58.133Z,101543.56
2018-02-20T01:48:23.977Z,101534.41
2018-02-20T01:51:02.313Z,101538.66
2018-02-20T01:53:28.251Z,101536.98
2018-02-20T01:55:54.084Z,101531.20
2018-02-20T01:58:20.011Z,101534.78
2018-02-20T02:00:45.853Z,101533.42
2018-02-20T02:03:11.776Z,101533.52
2018-02-20T02:05:37.777Z,101532.95
2018-02-20T02:08:03.641Z,101533.08
2018-02-20T02:10:29.493Z,101535.02
2018-02-20T02:12:55.397Z,101530.41
2018-02-20T02:15:21.241Z,101528.28
2018-02-20T02:17:47.173Z,101526.92
2018-02-20T02:20:13.448Z,101522.77
2018-02-20T02:22:39.288Z,101519.59
2018-02-20T02:25:05.132Z,101516.13
2018-02-20T02:27:31.018Z,101525.75
2018-02-20T02:29:56.953Z,101527.52
2018-02-20T02:32:22.789Z,101517.32
2018-02-20T02:34:48.685Z,101517.98
2018-02-20T02:37:14.533Z,101520.77
2018-02-20T02:39:40.405Z,101522.22
2018-02-20T02:42:06.426Z,101516.84
2018-02-20T02:44:32.314Z,101515.61
2018-02-20T02:46:58.194Z,101505.67
2018-02-20T02:49:24.101Z,101518.75
2018-02-20T02:51:49.953Z,101515.11
2018-02-20T02:54:15.869Z,101518.75
2018-02-20T02:56:41.854Z,101523.02
2018-02-20T02:59:07.723Z,101521.88
2018-02-20T03:01:33.578Z,101519.92
2018-02-20T03:03:59.770Z,101522.57
2018-02-20T03:06:25.715Z,101524.41
2018-02-20T03:08:51.548Z,101517.80
2018-02-20T03:11:17.445Z,101510.41
2018-02-20T03:13:43.288Z,101515.59
2018-02-20T03:16:09.133Z,101514.34
2018-02-20T03:18:35.132Z,101516.72
2018-02-20T03:21:00.988Z,101505.39
2018-02-20T03:23:26.828Z,101507.73
2018-02-20T03:25:52.717Z,101507.79
2018-02-20T03:28:18.555Z,101502.46
2018-02-20T03:30:44.484Z,101509.59
2018-02-20T03:33:10.423Z,101498.57
2018-02-20T03:35:36.268Z,101510.85
2018-02-20T03:38:02.121Z,101511.36
2018-02-20T03:40:28.120Z,101503.42
2018-02-20T03:42:54.082Z,101519.06
2018-02-20T03:45:19.936Z,101510.78
2018-02-20T03:47:45.842Z,101508.48
2018-02-20T03:50:11.688Z,101501.48
2018-02-20T03:52:37.529Z,101498.88
2018-02-20T03:55:03.558Z,101506.34
2018-02-20T03:57:29.402Z,101509.66
2018-02-20T03:59:55.505Z,101506.62
2018-02-20T04:02:21.407Z,101507.81
2018-02-20T04:04:47.576Z,101507.00
2018-02-20T04:07:13.513Z,101507.88
2018-02-20T04:09:39.400Z,101510.05
2018-02-20T04:12:05.288Z,101505.76
2018-02-20T04:14:31.137Z,101509.09
2018-02-20T04:16:57.037Z,101506.67
2018-02-20T04:19:22.968Z,101508.95
2018-02-20T04:21:48.812Z,101506.34
2018-02-20T04:24:14.702Z,101502.95
2018-02-20T04:26:40.557Z,101508.52
2018-02-20T04:29:06.405Z,101505.66
2018-02-20T04:31:32.600Z,101505.13
2018-02-20T04:33:58.469Z,101507.94
2018-02-20T04:36:24.333Z,101502.75
2018-02-20T04:38:50.401Z,101505.19
2018-02-20T04:41:16.272Z,101506.03
2018-02-20T04:43:42.220Z,101502.10
2018-02-20T04:46:08.129Z,101507.12
2018-02-20T04:48:33.971Z,101508.84
2018-02-20T04:50:59.812Z,101509.31
2018-02-20T04:53:25.698Z,101508.05
2018-02-20T04:55:51.633Z,101510.94
2018-02-20T04:58:17.478Z,101511.39
2018-02-20T05:00:43.381Z,101512.20
2018-02-20T05:03:09.226Z,101512.81
2018-02-20T05:05:35.077Z,101513.32
2018-02-20T05:08:01.062Z,101511.45
2018-02-20T05:10:26.908Z,101512.03
2018-02-20T05:12:52.792Z,101515.63
2018-02-20T05:15:18.675Z,101511.42
2018-02-20T05:17:44.538Z,101515.13
2018-02-20T05:20:10.478Z,101513.50
2018-02-20T05:22:36.362Z,101522.75
2018-02-20T05:25:02.222Z,101519.62
2018-02-20T05:27:28.074Z,101523.36
2018-02-20T05:29:53.998Z,101525.47
2018-02-20T05:32:19.932Z,101528.16
2018-02-20T05:34:45.785Z,101524.19
2018-02-20T05:37:11.774Z,101532.35
2018-02-20T05:39:37.644Z,101536.45
2018-02-20T05:42:03.518Z,101540.53
2018-02-20T05:44:29.545Z,101539.97
2018-02-20T05:46:55.393Z,101540.68
2018-02-20T05:49:21.263Z,101548.48
2018-02-20T05:51:47.174Z,101536.84
2018-02-20T05:54:13.017Z,101545.21
2018-02-20T05:56:38.953Z,101545.70
2018-02-20T05:59:04.842Z,101549.59
2018-02-20T06:01:31.548Z,101549.52
2018-02-20T06:03:57.389Z,101553.41
2018-02-20T06:06:23.357Z,101546.65
2018-02-20T06:08:49.283Z,101537.97
2018-02-20T06:11:15.140Z,101546.44
2018-02-20T06:13:41.034Z,101550.73
2018-02-20T06:16:06.957Z,101556.14
2018-02-20T06:18:32.809Z,101550.62
2018-02-20T06:20:58.865Z,101551.47
2018-02-20T06:23:24.713Z,101550.23
2018-02-20T06:25:50.556Z,101547.13
2018-02-20T06:28:16.457Z,101543.66
2018-02-20T06:30:42.349Z,101544.15
2018-02-20T06:33:08.269Z,101543.55
2018-02-20T06:35:34.189Z,101541.26
2018-02-20T06:38:00.038Z,101548.17
2018-02-20T06:40:25.886Z,101548.94
2018-02-20T06:42:51.803Z,101551.11
2018-02-20T06:45:17.788Z,101548.65
2018-02-20T06:47:43.614Z,101549.03
2018-02-20T06:50:09.518Z,101552.34
2018-02-20T06:52:35.426Z,101553.88
2018-02-20T06:55:01.265Z,101551.89
2018-02-20T06:57:27.537Z,101561.55
2018-02-20T06:59:53.437Z,101560.88
2018-02-20T07:02:19.365Z,101563.48
2018-02-20T07:04:45.546Z,101572.36
2018-02-20T07:07:11.441Z,101568.06
2018-02-20T07:09:37.388Z,101567.79
2018-02-20T07:12:03.302Z,101572.61
2018-02-20T07:14:29.146Z,101564.81
2018-02-20T07:16:54.990Z,101574.00
2018-02-20T07:19:20.958Z,101566.23
2018-02-20T07:21:46.889Z,101579.64
2018-02-20T07:24:12.729Z,101570.73
2018-02-20T07:26:38.659Z,101578.70
2018-02-20T07:29:04.526Z,101580.52
2018-02-20T07:31:30.597Z,101580.36
2018-02-20T07:33:56.593Z,101580.17
2018-02-20T07:36:22.539Z,101583.16
2018-02-20T07:38:48.394Z,101579.91
2018-02-20T07:41:14.298Z,101586.11
2018-02-20T07:43:40.133Z,101589.97
2018-02-20T07:46:06.070Z,101584.81
2018-02-20T07:48:31.962Z,101580.83
2018-02-20T07:50:57.812Z,101584.73
2018-02-20T07:53:23.678Z,101581.16
2018-02-20T07:55:49.582Z,101586.15
2018-02-20T07:58:15.517Z,101583.84
2018-02-20T08:00:41.398Z,101587.08
2018-02-20T08:03:07.293Z,101588.59
2018-02-20T08:05:33.246Z,101591.50
2018-02-20T08:07:59.076Z,101592.16
2018-02-20T08:10:25.073Z,101592.85
2018-02-20T08:12:50.929Z,101592.94
2018-02-20T08:15:16.789Z,101588.05
2018-02-20T08:17:42.675Z,101590.89
2018-02-20T08:20:08.534Z,101595.98
2018-02-20T08:22:34.552Z,101590.01
2018-02-20T08:25:00.466Z,101598.38
2018-02-20T08:27:26.308Z,101596.19
2018-02-20T08:29:52.151Z,101595.08
2018-02-20T08:32:18.048Z,101594.16
2018-02-20T08:34:43.977Z,101604.96
2018-02-20T08:37:09.808Z,101600.78
2018-02-20T08:39:35.905Z,101603.12
2018-02-20T08:42:01.762Z,101601.59
2018-02-20T08:44:27.626Z,101604.47
2018-02-20T08:46:53.614Z,101603.34
2018-02-20T08:49:19.497Z,101599.70
2018-02-20T08:51:45.352Z,101599.36
2018-02-20T08:54:11.245Z,101594.22
2018-02-20T08:56:37.125Z,101598.86
2018-02-20T08:59:03.060Z,101592.84
2018-02-20T09:01:29.306Z,101599.43
2018-02-20T09:03:55.504Z,101606.06
2018-02-20T09:06:21.388Z,101597.20
2018-02-20T09:08:47.550Z,101585.23
2018-02-20T09:11:13.553Z,101582.75
2018-02-20T09:13:39.420Z,101589.19
2018-02-20T09:16:05.408Z,101582.61
2018-02-20T09:18:31.257Z,101586.92
2018-02-20T09:20:57.110Z,101577.92
2018-02-20T09:23:23.105Z,101581.53
2018-02-20T09:25:49.103Z,101578.77
2018-02-20T09:28:15.085Z,101583.23
2018-02-20T09:30:40.974Z,101578.20
2018-02-20T09:33:06.838Z,101581.64
2018-02-20T09:35:33.070Z,101584.67
2018-02-20T09:37:58.961Z,101588.45
2018-02-20T09:40:24.817Z,101584.08
2018-02-20T09:42:50.662Z,101580.10
2018-02-20T09:45:16.545Z,101587.80
2018-02-20T09:47:42.705Z,101580.68
2018-02-20T09:50:08.564Z,101593.42
2018-02-20T09:52:34.459Z,101592.55
2018-02-20T09:55:00.313Z,101592.79
2018-02-20T09:57:26.158Z,101591.15
2018-02-20T09:59:52.137Z,101588.94
2018-02-20T10:02:17.983Z,101582.89
2018-02-20T10:04:43.851Z,101588.52
2018-02-20T10:07:09.737Z,101588.20
2018-02-20T10:09:35.602Z,101579.99
2018-02-20T10:12:01.553Z,101588.75
2018-02-20T10:14:27.657Z,101586.55
2018-02-20T10:16:53.509Z,101580.64
2018-02-20T10:19:19.361Z,101587.02
2018-02-20T10:21:45.248Z,101588.53
2018-02-20T10:24:11.184Z,101582.37
2018-02-20T10:26:37.081Z,101588.70
2018-02-20T10:29:02.956Z,101584.12
2018-02-20T10:31:28.821Z,101571.24
2018-02-20T10:33:54.670Z,101580.62
2018-02-20T10:36:20.652Z,101582.05
2018-02-20T10:41:18.114Z,101589.47
2018-02-20T10:43:44.108Z,101582.54
2018-02-20T10:46:10.054Z,101579.98
2018-02-20T10:48:36.009Z,101583.36
2018-02-20T10:51:01.968Z,101576.21
2018-02-20T10:53:27.836Z,101575.43
2018-02-20T10:55:53.713Z,101570.14
2018-02-20T10:58:19.631Z,101574.91
2018-02-20T11:00:45.603Z,101563.77
2018-02-20T11:03:11.556Z,101564.72
2018-02-20T11:05:37.544Z,101572.00
2018-02-20T11:08:03.413Z,101571.51
2018-02-20T11:10:29.288Z,101570.99
2018-02-20T11:12:55.294Z,101562.91
2018-02-20T11:15:21.228Z,101567.21
2018-02-20T11:17:47.108Z,101566.72
2018-02-20T11:20:13.028Z,101564.94
2018-02-20T11:22:38.892Z,101560.05
2018-02-20T11:25:04.869Z,101564.39
2018-02-20T11:27:30.884Z,101559.05
2018-02-20T11:30:03.704Z,101560.39
2018-02-20T11:32:29.581Z,101563.34
2018-02-20T11:34:55.505Z,101558.95
2018-02-20T11:37:21.500Z,101560.23
2018-02-20T11:39:47.462Z,101554.52
2018-02-20T11:42:13.398Z,101555.27
2018-02-20T11:44:39.269Z,101558.70
2018-02-20T11:47:05.141Z,101556.05
2018-02-20T11:49:38.188Z,101555.17
2018-02-20T11:52:04.141Z,101553.08
2018-02-20T11:54:30.015Z,101544.37
2018-02-20T11:56:55.932Z,101536.52
2018-02-20T11:59:21.818Z,101547.18
2018-02-20T12:01:47.830Z,101545.45
2018-02-20T12:04:13.804Z,101543.77
2018-02-20T12:06:39.742Z,101547.80
2018-02-20T12:09:05.619Z,101543.54
2018-02-20T12:11:31.542Z,101536.66
2018-02-20T12:13:57.527Z,101534.56
2018-02-20T12:16:23.449Z,101540.73
2018-02-20T12:18:49.360Z,101544.31
2018-02-20T12:21:15.265Z,101537.39
2018-02-20T12:23:41.144Z,101533.91
2018-02-20T12:26:07.153Z,101539.58
2018-02-20T12:28:33.087Z,101537.44
2018-02-20T12:30:58.955Z,101538.36
2018-02-20T12:33:24.867Z,101539.31
2018-02-20T12:35:50.791Z,101538.05
2018-02-20T12:38:16.977Z,101535.89
2018-02-20T12:40:42.944Z,101532.37
2018-02-20T12:43:08.812Z,101540.64
2018-02-20T12:45:34.709Z,101541.44
2018-02-20T12:48:00.781Z,101542.70
2018-02-20T12:50:26.716Z,101533.98
2018-02-20T12:52:52.749Z,101543.89
2018-02-20T12:55:18.673Z,101543.06
2018-02-20T12:57:44.667Z,101537.39
2018-02-20T13:00:10.524Z,101537.83
2018-02-20T13:02:36.541Z,101548.25
2018-02-20T13:05:02.471Z,101546.95
2018-02-20T13:07:28.353Z,101539.03
2018-02-20T13:09:54.277Z,101546.84
2018-02-20T13:12:20.154Z,101539.80
2018-02-20T13:14:46.116Z,101554.23
2018-02-20T13:17:12.079Z,101548.13
2018-02-20T13:19:37.957Z,101550.37
2018-02-20T13:22:03.846Z,101555.53
2018-02-20T13:24:29.757Z,101545.97
2018-02-20T13:26:55.721Z,101552.50
2018-02-20T13:29:21.652Z,101561.23
2018-02-20T13:31:47.567Z,101559.77
2018-02-20T13:34:13.474Z,101558.87
2018-02-20T13:36:39.344Z,101561.48
2018-02-20T13:39:05.355Z,101554.48
2018-02-20T13:41:31.293Z,101554.00
2018-02-20T13:43:57.166Z,101549.22
2018-02-20T13:46:23.075Z,101555.23
2018-02-20T13:48:48.954Z,101551.76
2018-02-20T13:51:14.965Z,101558.17
2018-02-20T13:53:40.957Z,101564.78
2018-02-20T13:56:06.842Z,101563.03
2018-02-20T13:58:32.713Z,101570.78
2018-02-20T14:00:58.629Z,101570.26
2018-02-20T14:03:24.586Z,101577.56
2018-02-20T14:05:50.521Z,101567.25
2018-02-20T14:08:16.438Z,101569.01
2018-02-20T14:10:42.316Z,101569.89
2018-02-20T14:13:08.212Z,101569.36
2018-02-20T14:15:34.532Z,101566.79
2018-02-20T14:18:00.477Z,101574.23
2018-02-20T14:20:26.364Z,101566.68
2018-02-20T14:22:52.268Z,101576.69
2018-02-20T14:25:18.147Z,101571.55
2018-02-20T14:27:44.087Z,101565.39
2018-02-20T14:30:10.069Z,101560.56
2018-02-20T14:32:35.939Z,101566.59
2018-02-20T14:35:01.805Z,101564.90
2018-02-20T14:37:27.721Z,101566.80
2018-02-20T14:39:53.681Z,101559.77
2018-02-20T14:42:19.617Z,101561.44
2018-02-20T14:44:45.846Z,101559.47
2018-02-20T14:47:11.725Z,101560.38
2018-02-20T14:49:44.536Z,101562.48
2018-02-20T14:52:10.796Z,101558.23
2018-02-20T14:54:36.753Z,101560.20
2018-02-20T14:57:02.633Z,101566.29
2018-02-20T14:59:28.557Z,101571.41
2018-02-20T15:01:54.445Z,101567.91
2018-02-20T15:04:20.737Z,101566.02
2018-02-20T15:06:46.704Z,101565.05
2018-02-20T15:09:12.589Z,101571.88
2018-02-20T15:11:38.451Z,101570.62
2018-02-20T15:14:04.368Z,101576.52
2018-02-20T15:16:30.397Z,101573.69
2018-02-20T15:18:56.380Z,101577.21
2018-02-20T15:21:22.488Z,101583.30
2018-02-20T15:23:48.545Z,101583.73
2018-02-20T15:26:14.423Z,101579.86
2018-02-20T15:28:40.525Z,101586.88
2018-02-20T15:31:06.470Z,101590.36
2018-02-20T15:33:32.337Z,101596.73
2018-02-20T15:35:58.254Z,101594.35
2018-02-20T15:38:24.120Z,101593.75
2018-02-20T15:40:50.068Z,101595.02
2018-02-20T15:43:16.354Z,101596.99
2018-02-20T15:45:42.312Z,101600.66
2018-02-20T15:48:08.189Z,101604.62
2018-02-20T15:50:34.101Z,101617.23
2018-02-20T15:53:00.109Z,101612.22
2018-02-20T15:55:26.175Z,101616.37
2018-02-20T15:57:52.118Z,101614.02
2018-02-20T16:00:17.990Z,101625.70
2018-02-20T16:02:43.860Z,101626.61
2018-02-20T16:05:09.925Z,101630.34
2018-02-20T16:07:36.020Z,101626.06
2018-02-20T16:10:01.924Z,101626.13
2018-02-20T16:12:27.846Z,101631.75
2018-02-20T16:14:53.830Z,101626.59
2018-02-20T16:17:19.805Z,101636.86
2018-02-20T16:19:45.922Z,101636.19
2018-02-20T16:22:11.886Z,101642.67
2018-02-20T16:24:37.758Z,101642.84
2018-02-20T16:27:03.689Z,101650.57
2018-02-20T16:29:29.676Z,101650.87
2018-02-20T16:31:55.605Z,101649.84
2018-02-20T16:34:21.526Z,101646.48
2018-02-20T16:36:47.401Z,101647.67
2018-02-20T16:39:13.333Z,101656.31
2018-02-20T16:41:39.349Z,101663.03
2018-02-20T16:44:05.368Z,101670.93
2018-02-20T16:46:31.274Z,101658.49
2018-02-20T16:48:57.192Z,101666.06
2018-02-20T16:51:23.061Z,101657.78
2018-02-20T16:53:49.020Z,101670.86
2018-02-20T16:56:15.060Z,101675.96
2018-02-20T16:58:40.940Z,101672.57
2018-02-20T17:01:06.888Z,101679.56
2018-02-20T17:03:32.852Z,101680.52
2018-02-20T17:05:58.825Z,101688.59
2018-02-20T17:08:24.745Z,101692.57
2018-02-20T17:10:50.660Z,101693.86
2018-02-20T17:16:10.710Z,101694.57
2018-02-20T17:18:36.637Z,101701.64
2018-02-20T17:21:02.648Z,101693.55
2018-02-20T17:23:28.585Z,101694.93
2018-02-20T17:25:54.466Z,101699.06
2018-02-20T17:28:20.430Z,101705.42
2018-02-20T17:30:46.871Z,101707.25
2018-02-20T17:33:12.765Z,101699.75
2018-02-20T17:35:38.653Z,101705.67
2018-02-20T17:38:04.590Z,101708.72
2018-02-20T17:40:30.561Z,101709.33
2018-02-20T17:42:56.502Z,101717.66
2018-02-20T17:45:22.454Z,101721.77
2018-02-20T17:47:48.445Z,101731.41
2018-02-20T17:50:14.322Z,101722.96
2018-02-20T17:52:40.365Z,101716.61
2018-02-20T17:55:06.305Z,101722.48
2018-02-20T17:57:32.281Z,101711.32
2018-02-20T17:59:58.252Z,101714.85
2018-02-20T18:02:24.175Z,101721.20
2018-02-20T18:04:50.193Z,101721.70
2018-02-20T18:07:16.373Z,101718.06
2018-02-20T18:09:42.272Z,101722.18
2018-02-20T18:12:08.135Z,101713.93
2018-02-20T18:14:34.050Z,101733.55
2018-02-20T18:17:00.072Z,101725.88
2018-02-20T18:19:25.993Z,101735.09
2018-02-20T18:21:52.010Z,101732.44
2018-02-20T18:24:18.529Z,101743.41
2018-02-20T18:26:44.417Z,101753.48
2018-02-20T18:29:10.414Z,101753.75
2018-02-20T18:31:36.349Z,101755.65
2018-02-20T18:34:02.208Z,101757.55
2018-02-20T18:36:28.205Z,101767.73
2018-02-20T18:38:54.079Z,101771.06
2018-02-20T18:41:20.081Z,101767.84
2018-02-20T18:43:46.277Z,101773.99
2018-02-20T18:46:12.190Z,101770.09
2018-02-20T18:48:38.063Z,101773.16
2018-02-20T18:51:04.532Z,101776.88
2018-02-20T18:53:32.116Z,101782.41
2018-02-20T18:55:58.059Z,101782.66
2018-02-20T18:58:23.964Z,101783.00
2018-02-20T19:00:49.994Z,101780.45
2018-02-20T19:03:15.921Z,101777.88
2018-02-20T19:05:41.953Z,101782.22
2018-02-20T19:08:07.890Z,101786.42
2018-02-20T19:10:33.852Z,101788.11
2018-02-20T19:12:59.766Z,101793.29
2018-02-20T19:15:25.628Z,101794.06
2018-02-20T19:17:51.583Z,101793.19
2018-02-20T19:20:17.854Z,101796.09
2018-02-20T19:22:43.820Z,101807.52
2018-02-20T19:25:09.705Z,101803.77
2018-02-20T19:27:35.616Z,101818.23
2018-02-20T19:30:01.660Z,101817.24
2018-02-20T19:32:27.565Z,101814.78
2018-02-20T19:34:54.323Z,101812.92
2018-02-20T19:37:20.235Z,101805.92
2018-02-20T19:39:46.112Z,101804.45
2018-02-20T19:42:12.116Z,101807.95
2018-02-20T19:44:38.046Z,101811.51
2018-02-20T19:47:03.919Z,101816.19
2018-02-20T19:49:29.844Z,101809.22
2018-02-20T19:51:55.710Z,101807.70
2018-02-20T19:54:21.683Z,101814.93
2018-02-20T19:56:47.660Z,101810.81
2018-02-20T19:59:13.545Z,101815.48
2018-02-20T20:01:39.407Z,101817.75
2018-02-20T20:04:05.996Z,101814.44
2018-02-20T20:06:31.952Z,101816.30
2018-02-20T20:08:57.873Z,101812.20
2018-02-20T20:11:23.785Z,101815.30
2018-02-20T20:13:50.472Z,101817.47
2018-02-20T20:16:16.397Z,101813.53
2018-02-20T20:18:42.414Z,101818.92
2018-02-20T20:21:08.341Z,101813.90
2018-02-20T20:23:34.214Z,101810.52
2018-02-20T20:26:00.176Z,101819.58
2018-02-20T20:28:26.046Z,101820.86
2018-02-20T20:30:52.126Z,101819.38
2018-02-20T20:33:18.105Z,101833.70
2018-02-20T20:35:44.108Z,101839.05
2018-02-20T20:38:09.993Z,101839.84
2018-02-20T20:40:35.978Z,101833.97
2018-02-20T20:43:01.954Z,101851.89
2018-02-20T20:45:27.897Z,101847.98
2018-02-20T20:47:53.850Z,101845.92
2018-02-20T20:50:19.737Z,101854.84
2018-02-20T20:52:45.639Z,101857.27
2018-02-20T20:55:11.979Z,101852.63
2018-02-20T20:57:37.912Z,101860.03
2018-02-20T21:00:03.805Z,101862.95
2018-02-20T21:02:29.736Z,101858.28
2018-02-20T21:04:55.601Z,101861.31
2018-02-20T21:07:21.556Z,101854.94
2018-02-20T21:09:47.558Z,101857.80
2018-02-20T21:12:13.422Z,101852.44
2018-02-20T21:14:39.339Z,101849.53
2018-02-20T21:17:05.253Z,101858.14
2018-02-20T21:19:31.208Z,101859.30
2018-02-20T21:21:57.120Z,101861.37
2018-02-20T21:24:23.021Z,101857.91
2018-02-20T21:26:48.889Z,101864.92
2018-02-20T21:29:14.765Z,101860.91
2018-02-20T21:31:40.783Z,101863.53
2018-02-20T21:34:06.705Z,101872.02
2018-02-20T21:36:32.577Z,101875.57
2018-02-20T21:38:58.564Z,101874.77
2018-02-20T21:41:24.446Z,101873.67
2018-02-20T21:43:50.396Z,101876.20
2018-02-20T21:46:16.384Z,101874.91
2018-02-20T21:48:42.255Z,101866.36
2018-02-20T21:51:08.130Z,101871.86
2018-02-20T21:53:34.336Z,101876.19
2018-02-20T21:56:00.289Z,101872.83
2018-02-20T21:58:26.216Z,101866.18
2018-02-20T22:00:52.512Z,101868.15
2018-02-20T22:03:18.461Z,101868.02
2018-02-20T22:05:44.356Z,101876.06
2018-02-20T22:08:10.366Z,101874.59
2018-02-20T22:10:36.309Z,101887.42
2018-02-20T22:13:02.188Z,101888.56
2018-02-20T22:15:28.114Z,101886.34
2018-02-20T22:17:53.976Z,101885.47
2018-02-20T22:20:19.964Z,101884.27
2018-02-20T22:22:45.923Z,101885.41
2018-02-20T22:25:11.852Z,101890.70
2018-02-20T22:27:37.721Z,101896.14
2018-02-20T22:30:03.709Z,101892.87
2018-02-20T22:32:29.630Z,101897.63
2018-02-20T22:34:55.576Z,101897.93
2018-02-20T22:37:21.489Z,101904.59
2018-02-20T22:39:47.356Z,101901.70
2018-02-20T22:42:13.246Z,101899.48
2018-02-20T22:44:39.274Z,101906.84
2018-02-20T22:47:05.210Z,101901.70
2018-02-20T22:49:31.070Z,101898.20
2018-02-20T22:51:57.052Z,101900.29
2018-02-20T22:54:22.937Z,101901.84
2018-02-20T22:56:48.883Z,101901.00
2018-02-20T22:59:14.861Z,101894.30
2018-02-20T23:01:40.740Z,101896.80
2018-02-20T23:04:06.612Z,101905.65
2018-02-20T23:06:32.660Z,101895.33
2018-02-20T23:08:58.617Z,101902.95
2018-02-20T23:11:36.996Z,101907.13
2018-02-20T23:14:02.894Z,101905.48
2018-02-20T23:16:28.761Z,101910.84
2018-02-20T23:18:54.685Z,101907.82
2018-02-20T23:21:20.671Z,101908.49
2018-02-20T23:23:46.605Z,101907.13
2018-02-20T23:26:12.530Z,101910.48
2018-02-20T23:28:38.406Z,101915.19
2018-02-20T23:31:04.312Z,101913.38
2018-02-20T23:33:30.765Z,101915.86
2018-02-20T23:35:57.081Z,101914.16
2018-02-20T23:38:23.097Z,101913.55
2018-02-20T23:40:49.386Z,101917.45
2018-02-20T23:43:15.635Z,101922.50
2018-02-20T23:45:41.828Z,101920.81
2018-02-20T23:48:08.248Z,101924.10
2018-02-20T23:50:34.334Z,101924.95
2018-02-20T23:53:00.476Z,101928.80
2018-02-20T23:55:26.799Z,101928.41
2018-02-20T23:57:53.144Z,101934.69
